Weather at Ćemovsko Polje / Špiro Mugoša Airfield

Public forecast

Using degrees Celsius for public forecast. Weather courtesy of forecast.io.

Closest aviation weather report (METAR) to Ćemovsko Polje / Špiro Mugoša Airfield

Closest report is Podgorica Airport / Podgorica Golubovci Airbase, 4.2 nm (7.7 km) SSW.

2022/12/10 02:00 (retrieved 1 hour ago)

LYPG 100200Z 12013KT 9999 -RA FEW020 SCT040 BKN070 14/11 Q1008 NOSIG

Closest aviation forecast (TAF) to Ćemovsko Polje / Špiro Mugoša Airfield

Forecast is more than 12 hours old.

Closest forecast is Kukës International Airport, 55.1 nm (102.1 km) ESE.

2022/12/09 12:00 Ammendment (retrieved 15 hours ago)

TAF AMD LAKU 091530Z 0912/1012 CNL